sensor_id;sensor_type;location;lat;lon;timestamp;P1;durP1;ratioP1;P2;durP2;ratioP2
11197;SDS011;5655;48.744;9.162;2023-01-09T00:01:25;7.85;;;5.95;;
11197;SDS011;5655;48.744;9.162;2023-01-09T00:03:52;10.35;;;6.13;;
11197;SDS011;5655;48.744;9.162;2023-01-09T00:06:18;7.18;;;5.90;;
11197;SDS011;5655;48.744;9.162;2023-01-09T00:08:43;7.68;;;5.90;;
11197;SDS011;5655;48.744;9.162;2023-01-09T00:11:09;8.02;;;5.55;;
11197;SDS011;5655;48.744;9.162;2023-01-09T00:13:34;7.00;;;5.43;;
11197;SDS011;5655;48.744;9.162;2023-01-09T00:16:00;6.85;;;5.45;;
11197;SDS011;5655;48.744;9.162;2023-01-09T00:18:25;5.95;;;4.90;;
11197;SDS011;5655;48.744;9.162;2023-01-09T00:20:51;5.65;;;4.97;;
11197;SDS011;5655;48.744;9.162;2023-01-09T00:23:16;6.63;;;4.88;;
11197;SDS011;5655;48.744;9.162;2023-01-09T00:25:42;8.93;;;4.70;;
11197;SDS011;5655;48.744;9.162;2023-01-09T00:28:07;6.18;;;4.75;;
11197;SDS011;5655;48.744;9.162;2023-01-09T00:30:32;5.50;;;4.00;;
11197;SDS011;5655;48.744;9.162;2023-01-09T00:32:58;5.20;;;4.00;;
11197;SDS011;5655;48.744;9.162;2023-01-09T00:35:24;4.10;;;3.70;;
11197;SDS011;5655;48.744;9.162;2023-01-09T00:37:51;4.47;;;3.63;;
11197;SDS011;5655;48.744;9.162;2023-01-09T00:40:16;5.07;;;3.67;;
11197;SDS011;5655;48.744;9.162;2023-01-09T00:42:44;3.33;;;2.83;;
11197;SDS011;5655;48.744;9.162;2023-01-09T00:45:14;3.92;;;3.30;;
11197;SDS011;5655;48.744;9.162;2023-01-09T00:47:45;3.22;;;2.40;;
11197;SDS011;5655;48.744;9.162;2023-01-09T00:50:15;4.38;;;2.28;;
11197;SDS011;5655;48.744;9.162;2023-01-09T00:52:42;2.80;;;2.13;;
11197;SDS011;5655;48.744;9.162;2023-01-09T00:55:09;2.03;;;1.70;;
11197;SDS011;5655;48.744;9.162;2023-01-09T00:57:35;2.00;;;1.80;;
11197;SDS011;5655;48.744;9.162;2023-01-09T01:00:00;2.22;;;1.80;;
11197;SDS011;5655;48.744;9.162;2023-01-09T01:02:27;1.83;;;1.23;;
11197;SDS011;5655;48.744;9.162;2023-01-09T01:04:52;2.55;;;1.70;;
11197;SDS011;5655;48.744;9.162;2023-01-09T01:07:36;2.15;;;1.42;;
11197;SDS011;5655;48.744;9.162;2023-01-09T01:10:08;1.77;;;1.45;;
11197;SDS011;5655;48.744;9.162;2023-01-09T01:12:36;1.70;;;1.30;;
11197;SDS011;5655;48.744;9.162;2023-01-09T01:15:02;1.35;;;1.25;;
11197;SDS011;5655;48.744;9.162;2023-01-09T01:17:28;1.35;;;1.10;;
11197;SDS011;5655;48.744;9.162;2023-01-09T01:19:54;1.15;;;0.85;;
11197;SDS011;5655;48.744;9.162;2023-01-09T01:22:20;1.25;;;1.00;;
11197;SDS011;5655;48.744;9.162;2023-01-09T01:24:45;1.33;;;0.90;;
11197;SDS011;5655;48.744;9.162;2023-01-09T01:27:10;1.20;;;1.00;;
11197;SDS011;5655;48.744;9.162;2023-01-09T01:29:36;2.85;;;1.00;;
11197;SDS011;5655;48.744;9.162;2023-01-09T01:32:01;0.98;;;0.90;;
11197;SDS011;5655;48.744;9.162;2023-01-09T01:34:27;1.15;;;1.02;;
11197;SDS011;5655;48.744;9.162;2023-01-09T01:36:53;1.27;;;1.00;;
11197;SDS011;5655;48.744;9.162;2023-01-09T01:39:18;0.85;;;0.80;;
11197;SDS011;5655;48.744;9.162;2023-01-09T01:41:43;1.30;;;1.10;;
11197;SDS011;5655;48.744;9.162;2023-01-09T01:47:12;1.17;;;1.08;;
11197;SDS011;5655;48.744;9.162;2023-01-09T01:49:39;1.00;;;0.90;;
11197;SDS011;5655;48.744;9.162;2023-01-09T01:52:05;1.05;;;0.90;;
11197;SDS011;5655;48.744;9.162;2023-01-09T01:54:30;1.08;;;0.98;;
11197;SDS011;5655;48.744;9.162;2023-01-09T01:56:58;1.75;;;0.98;;
11197;SDS011;5655;48.744;9.162;2023-01-09T01:59:28;1.02;;;0.90;;
11197;SDS011;5655;48.744;9.162;2023-01-09T02:02:04;0.73;;;0.70;;
11197;SDS011;5655;48.744;9.162;2023-01-09T02:04:29;1.10;;;0.80;;
11197;SDS011;5655;48.744;9.162;2023-01-09T02:06:58;1.50;;;0.80;;
11197;SDS011;5655;48.744;9.162;2023-01-09T02:09:27;0.90;;;0.80;;
11197;SDS011;5655;48.744;9.162;2023-01-09T02:11:54;2.25;;;0.70;;
11197;SDS011;5655;48.744;9.162;2023-01-09T02:14:24;0.70;;;0.70;;
11197;SDS011;5655;48.744;9.162;2023-01-09T02:25:40;1.38;;;0.75;;
11197;SDS011;5655;48.744;9.162;2023-01-09T02:30:39;1.00;;;0.90;;
11197;SDS011;5655;48.744;9.162;2023-01-09T02:38:26;0.80;;;0.70;;
11197;SDS011;5655;48.744;9.162;2023-01-09T02:43:37;3.28;;;0.95;;
11197;SDS011;5655;48.744;9.162;2023-01-09T02:46:04;0.60;;;0.60;;
11197;SDS011;5655;48.744;9.162;2023-01-09T02:48:29;0.73;;;0.70;;
11197;SDS011;5655;48.744;9.162;2023-01-09T02:53:37;0.55;;;0.50;;
11197;SDS011;5655;48.744;9.162;2023-01-09T03:01:06;1.60;;;0.68;;
11197;SDS011;5655;48.744;9.162;2023-01-09T03:03:59;0.70;;;0.60;;
11197;SDS011;5655;48.744;9.162;2023-01-09T03:06:38;0.98;;;0.60;;
11197;SDS011;5655;48.744;9.162;2023-01-09T03:09:15;0.50;;;0.40;;
11197;SDS011;5655;48.744;9.162;2023-01-09T03:11:46;0.50;;;0.50;;
11197;SDS011;5655;48.744;9.162;2023-01-09T03:14:17;1.35;;;0.60;;
11197;SDS011;5655;48.744;9.162;2023-01-09T03:16:45;0.57;;;0.40;;
11197;SDS011;5655;48.744;9.162;2023-01-09T03:19:15;1.02;;;0.40;;
11197;SDS011;5655;48.744;9.162;2023-01-09T03:21:43;1.02;;;0.60;;
11197;SDS011;5655;48.744;9.162;2023-01-09T03:24:10;0.98;;;0.43;;
11197;SDS011;5655;48.744;9.162;2023-01-09T03:26:36;2.55;;;0.30;;
11197;SDS011;5655;48.744;9.162;2023-01-09T03:29:01;0.30;;;0.30;;
11197;SDS011;5655;48.744;9.162;2023-01-09T03:31:26;1.05;;;0.32;;
11197;SDS011;5655;48.744;9.162;2023-01-09T03:33:52;0.68;;;0.43;;
11197;SDS011;5655;48.744;9.162;2023-01-09T03:36:18;0.30;;;0.30;;
11197;SDS011;5655;48.744;9.162;2023-01-09T03:38:47;0.32;;;0.32;;
11197;SDS011;5655;48.744;9.162;2023-01-09T03:41:13;0.30;;;0.30;;
11197;SDS011;5655;48.744;9.162;2023-01-09T03:43:38;0.15;;;0.15;;
11197;SDS011;5655;48.744;9.162;2023-01-09T03:46:04;0.10;;;0.10;;
11197;SDS011;5655;48.744;9.162;2023-01-09T03:48:29;0.40;;;0.30;;
11197;SDS011;5655;48.744;9.162;2023-01-09T03:50:55;0.20;;;0.20;;
11197;SDS011;5655;48.744;9.162;2023-01-09T03:53:22;0.20;;;0.20;;
11197;SDS011;5655;48.744;9.162;2023-01-09T03:55:51;0.20;;;0.20;;
11197;SDS011;5655;48.744;9.162;2023-01-09T03:58:18;0.30;;;0.30;;
11197;SDS011;5655;48.744;9.162;2023-01-09T04:00:45;1.15;;;0.40;;
11197;SDS011;5655;48.744;9.162;2023-01-09T04:03:12;0.32;;;0.32;;
11197;SDS011;5655;48.744;9.162;2023-01-09T04:05:39;2.25;;;0.40;;
11197;SDS011;5655;48.744;9.162;2023-01-09T04:08:04;0.40;;;0.38;;
11197;SDS011;5655;48.744;9.162;2023-01-09T04:10:29;0.40;;;0.40;;
11197;SDS011;5655;48.744;9.162;2023-01-09T04:12:55;1.10;;;0.40;;
11197;SDS011;5655;48.744;9.162;2023-01-09T04:15:20;0.20;;;0.20;;
11197;SDS011;5655;48.744;9.162;2023-01-09T04:17:46;0.20;;;0.20;;
11197;SDS011;5655;48.744;9.162;2023-01-09T04:20:11;0.30;;;0.20;;
11197;SDS011;5655;48.744;9.162;2023-01-09T04:22:37;0.30;;;0.30;;
11197;SDS011;5655;48.744;9.162;2023-01-09T04:25:03;0.20;;;0.20;;
11197;SDS011;5655;48.744;9.162;2023-01-09T04:27:29;0.20;;;0.20;;
11197;SDS011;5655;48.744;9.162;2023-01-09T04:29:54;0.10;;;0.10;;
11197;SDS011;5655;48.744;9.162;2023-01-09T04:32:20;0.10;;;0.10;;
11197;SDS011;5655;48.744;9.162;2023-01-09T04:34:45;0.10;;;0.10;;
11197;SDS011;5655;48.744;9.162;2023-01-09T04:37:11;0.57;;;0.28;;
11197;SDS011;5655;48.744;9.162;2023-01-09T04:39:36;0.30;;;0.23;;
11197;SDS011;5655;48.744;9.162;2023-01-09T04:42:02;0.10;;;0.10;;
11197;SDS011;5655;48.744;9.162;2023-01-09T04:44:27;0.80;;;0.10;;
11197;SDS011;5655;48.744;9.162;2023-01-09T04:46:54;0.63;;;0.20;;
11197;SDS011;5655;48.744;9.162;2023-01-09T04:49:21;0.20;;;0.20;;
11197;SDS011;5655;48.744;9.162;2023-01-09T04:51:47;0.57;;;0.20;;
11197;SDS011;5655;48.744;9.162;2023-01-09T04:54:13;0.33;;;0.20;;
11197;SDS011;5655;48.744;9.162;2023-01-09T04:56:38;0.20;;;0.20;;
11197;SDS011;5655;48.744;9.162;2023-01-09T04:59:04;0.20;;;0.20;;
11197;SDS011;5655;48.744;9.162;2023-01-09T05:01:31;0.32;;;0.30;;
11197;SDS011;5655;48.744;9.162;2023-01-09T05:03:56;0.15;;;0.15;;
11197;SDS011;5655;48.744;9.162;2023-01-09T05:06:22;2.28;;;0.40;;
11197;SDS011;5655;48.744;9.162;2023-01-09T05:08:47;1.20;;;0.20;;
11197;SDS011;5655;48.744;9.162;2023-01-09T05:11:12;0.32;;;0.30;;
11197;SDS011;5655;48.744;9.162;2023-01-09T05:13:38;0.17;;;0.17;;
11197;SDS011;5655;48.744;9.162;2023-01-09T05:16:03;0.77;;;0.40;;
11197;SDS011;5655;48.744;9.162;2023-01-09T05:18:28;0.40;;;0.40;;
11197;SDS011;5655;48.744;9.162;2023-01-09T05:20:54;0.23;;;0.20;;
11197;SDS011;5655;48.744;9.162;2023-01-09T05:23:19;0.20;;;0.20;;
11197;SDS011;5655;48.744;9.162;2023-01-09T05:25:44;0.30;;;0.30;;
11197;SDS011;5655;48.744;9.162;2023-01-09T05:28:10;2.28;;;0.38;;
11197;SDS011;5655;48.744;9.162;2023-01-09T05:30:35;0.40;;;0.40;;
11197;SDS011;5655;48.744;9.162;2023-01-09T05:33:00;1.37;;;0.40;;
11197;SDS011;5655;48.744;9.162;2023-01-09T05:35:26;0.70;;;0.40;;
11197;SDS011;5655;48.744;9.162;2023-01-09T05:37:51;0.40;;;0.40;;
11197;SDS011;5655;48.744;9.162;2023-01-09T05:40:16;0.57;;;0.30;;
11197;SDS011;5655;48.744;9.162;2023-01-09T05:42:42;1.90;;;0.60;;
11197;SDS011;5655;48.744;9.162;2023-01-09T05:45:08;1.00;;;0.40;;
11197;SDS011;5655;48.744;9.162;2023-01-09T05:47:34;4.33;;;0.90;;
11197;SDS011;5655;48.744;9.162;2023-01-09T05:49:59;0.73;;;0.43;;
11197;SDS011;5655;48.744;9.162;2023-01-09T05:52:24;2.00;;;0.50;;
11197;SDS011;5655;48.744;9.162;2023-01-09T05:54:50;0.37;;;0.30;;
11197;SDS011;5655;48.744;9.162;2023-01-09T05:57:15;0.43;;;0.40;;
11197;SDS011;5655;48.744;9.162;2023-01-09T05:59:41;0.70;;;0.40;;
11197;SDS011;5655;48.744;9.162;2023-01-09T06:02:06;1.83;;;0.55;;
11197;SDS011;5655;48.744;9.162;2023-01-09T06:04:32;0.67;;;0.40;;
11197;SDS011;5655;48.744;9.162;2023-01-09T06:06:57;0.87;;;0.50;;
11197;SDS011;5655;48.744;9.162;2023-01-09T06:09:23;0.55;;;0.40;;
11197;SDS011;5655;48.744;9.162;2023-01-09T06:11:48;1.80;;;0.50;;
11197;SDS011;5655;48.744;9.162;2023-01-09T06:14:13;1.40;;;0.33;;
11197;SDS011;5655;48.744;9.162;2023-01-09T06:16:39;0.67;;;0.30;;
11197;SDS011;5655;48.744;9.162;2023-01-09T06:19:04;0.27;;;0.27;;
11197;SDS011;5655;48.744;9.162;2023-01-09T06:21:30;0.73;;;0.57;;
11197;SDS011;5655;48.744;9.162;2023-01-09T06:23:56;1.10;;;0.50;;
11197;SDS011;5655;48.744;9.162;2023-01-09T06:26:21;0.70;;;0.60;;
11197;SDS011;5655;48.744;9.162;2023-01-09T06:28:47;0.97;;;0.40;;
11197;SDS011;5655;48.744;9.162;2023-01-09T06:31:12;0.50;;;0.30;;
11197;SDS011;5655;48.744;9.162;2023-01-09T06:33:38;0.67;;;0.50;;
11197;SDS011;5655;48.744;9.162;2023-01-09T06:36:03;0.97;;;0.60;;
11197;SDS011;5655;48.744;9.162;2023-01-09T06:38:29;2.30;;;0.60;;
11197;SDS011;5655;48.744;9.162;2023-01-09T06:40:54;0.97;;;0.60;;
11197;SDS011;5655;48.744;9.162;2023-01-09T06:43:19;0.52;;;0.40;;
11197;SDS011;5655;48.744;9.162;2023-01-09T06:45:45;0.57;;;0.40;;
11197;SDS011;5655;48.744;9.162;2023-01-09T06:48:10;0.83;;;0.50;;
11197;SDS011;5655;48.744;9.162;2023-01-09T06:50:36;1.98;;;0.60;;
11197;SDS011;5655;48.744;9.162;2023-01-09T06:53:01;1.88;;;0.60;;
11197;SDS011;5655;48.744;9.162;2023-01-09T06:55:27;3.37;;;0.83;;
11197;SDS011;5655;48.744;9.162;2023-01-09T06:57:52;1.03;;;0.60;;
11197;SDS011;5655;48.744;9.162;2023-01-09T07:00:18;2.70;;;0.73;;
11197;SDS011;5655;48.744;9.162;2023-01-09T07:02:43;5.13;;;0.87;;
11197;SDS011;5655;48.744;9.162;2023-01-09T07:05:09;2.57;;;0.80;;
11197;SDS011;5655;48.744;9.162;2023-01-09T07:07:36;5.40;;;0.87;;
11197;SDS011;5655;48.744;9.162;2023-01-09T07:10:04;2.53;;;0.70;;
11197;SDS011;5655;48.744;9.162;2023-01-09T07:12:30;1.77;;;1.10;;
11197;SDS011;5655;48.744;9.162;2023-01-09T07:14:55;9.00;;;1.17;;
11197;SDS011;5655;48.744;9.162;2023-01-09T07:17:21;2.93;;;0.97;;
11197;SDS011;5655;48.744;9.162;2023-01-09T07:19:46;4.40;;;0.93;;
11197;SDS011;5655;48.744;9.162;2023-01-09T07:22:11;4.03;;;1.50;;
11197;SDS011;5655;48.744;9.162;2023-01-09T07:24:37;2.97;;;0.70;;
11197;SDS011;5655;48.744;9.162;2023-01-09T07:27:02;2.57;;;0.60;;
11197;SDS011;5655;48.744;9.162;2023-01-09T07:29:27;2.03;;;0.73;;
11197;SDS011;5655;48.744;9.162;2023-01-09T07:31:53;2.07;;;0.83;;
11197;SDS011;5655;48.744;9.162;2023-01-09T07:34:18;3.40;;;0.80;;
11197;SDS011;5655;48.744;9.162;2023-01-09T07:36:44;3.20;;;0.67;;
11197;SDS011;5655;48.744;9.162;2023-01-09T07:39:11;2.63;;;0.70;;
11197;SDS011;5655;48.744;9.162;2023-01-09T07:41:37;3.23;;;0.50;;
11197;SDS011;5655;48.744;9.162;2023-01-09T07:44:02;3.37;;;1.00;;
11197;SDS011;5655;48.744;9.162;2023-01-09T07:46:28;2.00;;;0.87;;
11197;SDS011;5655;48.744;9.162;2023-01-09T07:48:53;1.80;;;0.80;;
11197;SDS011;5655;48.744;9.162;2023-01-09T07:51:18;2.60;;;1.00;;
11197;SDS011;5655;48.744;9.162;2023-01-09T07:53:44;2.70;;;1.00;;
11197;SDS011;5655;48.744;9.162;2023-01-09T07:56:09;2.30;;;0.90;;
11197;SDS011;5655;48.744;9.162;2023-01-09T07:58:34;3.23;;;0.93;;
11197;SDS011;5655;48.744;9.162;2023-01-09T08:00:59;3.83;;;0.93;;
11197;SDS011;5655;48.744;9.162;2023-01-09T08:03:25;3.63;;;1.03;;
11197;SDS011;5655;48.744;9.162;2023-01-09T08:05:50;2.83;;;1.00;;
11197;SDS011;5655;48.744;9.162;2023-01-09T08:08:16;2.60;;;1.20;;
11197;SDS011;5655;48.744;9.162;2023-01-09T08:10:41;3.47;;;0.97;;
11197;SDS011;5655;48.744;9.162;2023-01-09T08:13:07;2.73;;;0.90;;
11197;SDS011;5655;48.744;9.162;2023-01-09T08:15:32;3.13;;;0.70;;
11197;SDS011;5655;48.744;9.162;2023-01-09T08:17:58;3.07;;;1.03;;
11197;SDS011;5655;48.744;9.162;2023-01-09T08:20:23;2.27;;;0.77;;
11197;SDS011;5655;48.744;9.162;2023-01-09T08:22:49;2.73;;;0.83;;
11197;SDS011;5655;48.744;9.162;2023-01-09T08:25:14;3.10;;;1.10;;
11197;SDS011;5655;48.744;9.162;2023-01-09T08:27:41;1.93;;;0.80;;
11197;SDS011;5655;48.744;9.162;2023-01-09T08:30:06;3.73;;;1.17;;
11197;SDS011;5655;48.744;9.162;2023-01-09T08:32:33;2.30;;;0.83;;
11197;SDS011;5655;48.744;9.162;2023-01-09T08:34:59;3.83;;;0.90;;
11197;SDS011;5655;48.744;9.162;2023-01-09T08:37:24;1.80;;;0.80;;
11197;SDS011;5655;48.744;9.162;2023-01-09T08:39:49;6.17;;;1.43;;
11197;SDS011;5655;48.744;9.162;2023-01-09T08:42:15;20.10;;;3.93;;
11197;SDS011;5655;48.744;9.162;2023-01-09T08:44:59;2.97;;;0.90;;
11197;SDS011;5655;48.744;9.162;2023-01-09T08:47:43;3.83;;;0.67;;
11197;SDS011;5655;48.744;9.162;2023-01-09T08:50:08;2.47;;;0.90;;
11197;SDS011;5655;48.744;9.162;2023-01-09T08:52:33;4.80;;;1.40;;
11197;SDS011;5655;48.744;9.162;2023-01-09T08:54:59;3.03;;;0.67;;
11197;SDS011;5655;48.744;9.162;2023-01-09T08:57:24;6.07;;;1.00;;
11197;SDS011;5655;48.744;9.162;2023-01-09T08:59:50;5.47;;;0.60;;
11197;SDS011;5655;48.744;9.162;2023-01-09T09:02:15;10.30;;;0.90;;
11197;SDS011;5655;48.744;9.162;2023-01-09T09:04:40;25.75;;;2.67;;
11197;SDS011;5655;48.744;9.162;2023-01-09T09:07:06;2.67;;;0.90;;
11197;SDS011;5655;48.744;9.162;2023-01-09T09:09:31;4.53;;;1.02;;
11197;SDS011;5655;48.744;9.162;2023-01-09T09:11:56;5.03;;;0.57;;
11197;SDS011;5655;48.744;9.162;2023-01-09T09:14:22;116.63;;;11.33;;
11197;SDS011;5655;48.744;9.162;2023-01-09T09:17:06;3.27;;;0.70;;
11197;SDS011;5655;48.744;9.162;2023-01-09T09:19:31;1.75;;;1.20;;
11197;SDS011;5655;48.744;9.162;2023-01-09T09:21:56;1.87;;;0.67;;
11197;SDS011;5655;48.744;9.162;2023-01-09T09:24:22;4.77;;;0.70;;
11197;SDS011;5655;48.744;9.162;2023-01-09T09:26:47;2.37;;;0.90;;
11197;SDS011;5655;48.744;9.162;2023-01-09T09:29:12;4.13;;;0.83;;
11197;SDS011;5655;48.744;9.162;2023-01-09T09:31:37;4.17;;;0.90;;
11197;SDS011;5655;48.744;9.162;2023-01-09T09:34:04;2.20;;;0.68;;
11197;SDS011;5655;48.744;9.162;2023-01-09T09:36:31;1.43;;;0.70;;
11197;SDS011;5655;48.744;9.162;2023-01-09T09:38:56;2.08;;;0.85;;
11197;SDS011;5655;48.744;9.162;2023-01-09T09:44:21;3.90;;;0.90;;
11197;SDS011;5655;48.744;9.162;2023-01-09T09:49:48;1.38;;;0.82;;
11197;SDS011;5655;48.744;9.162;2023-01-09T09:55:05;2.17;;;0.80;;
11197;SDS011;5655;48.744;9.162;2023-01-09T09:57:42;2.65;;;0.95;;
11197;SDS011;5655;48.744;9.162;2023-01-09T10:00:13;2.20;;;0.95;;
11197;SDS011;5655;48.744;9.162;2023-01-09T10:02:46;1.25;;;0.63;;
11197;SDS011;5655;48.744;9.162;2023-01-09T10:05:18;1.85;;;0.77;;
11197;SDS011;5655;48.744;9.162;2023-01-09T10:07:48;2.70;;;1.13;;
11197;SDS011;5655;48.744;9.162;2023-01-09T10:10:21;3.40;;;0.60;;
11197;SDS011;5655;48.744;9.162;2023-01-09T10:12:57;1.23;;;0.80;;
11197;SDS011;5655;48.744;9.162;2023-01-09T10:15:33;1.63;;;0.90;;
11197;SDS011;5655;48.744;9.162;2023-01-09T10:18:10;2.63;;;1.10;;
11197;SDS011;5655;48.744;9.162;2023-01-09T10:23:37;3.38;;;1.20;;
11197;SDS011;5655;48.744;9.162;2023-01-09T10:26:20;4.22;;;1.20;;
11197;SDS011;5655;48.744;9.162;2023-01-09T10:37:07;2.30;;;0.65;;
11197;SDS011;5655;48.744;9.162;2023-01-09T10:39:42;2.60;;;0.90;;
11197;SDS011;5655;48.744;9.162;2023-01-09T10:42:16;4.30;;;0.98;;
11197;SDS011;5655;48.744;9.162;2023-01-09T10:44:47;3.67;;;1.00;;
11197;SDS011;5655;48.744;9.162;2023-01-09T10:47:27;4.25;;;0.80;;
11197;SDS011;5655;48.744;9.162;2023-01-09T10:49:56;3.10;;;1.17;;
11197;SDS011;5655;48.744;9.162;2023-01-09T10:52:24;1.98;;;0.75;;
11197;SDS011;5655;48.744;9.162;2023-01-09T10:58:03;4.13;;;1.02;;
11197;SDS011;5655;48.744;9.162;2023-01-09T11:00:35;5.20;;;1.00;;
11197;SDS011;5655;48.744;9.162;2023-01-09T11:03:02;3.80;;;1.00;;
11197;SDS011;5655;48.744;9.162;2023-01-09T11:05:28;3.22;;;0.98;;
11197;SDS011;5655;48.744;9.162;2023-01-09T11:08:18;2.15;;;0.80;;
11197;SDS011;5655;48.744;9.162;2023-01-09T11:13:13;3.60;;;1.60;;
11197;SDS011;5655;48.744;9.162;2023-01-09T11:15:43;5.97;;;1.27;;
11197;SDS011;5655;48.744;9.162;2023-01-09T11:18:16;5.28;;;1.02;;
11197;SDS011;5655;48.744;9.162;2023-01-09T11:20:43;4.93;;;1.15;;
11197;SDS011;5655;48.744;9.162;2023-01-09T11:23:21;3.67;;;1.17;;
11197;SDS011;5655;48.744;9.162;2023-01-09T11:25:56;2.72;;;1.08;;
11197;SDS011;5655;48.744;9.162;2023-01-09T11:28:23;3.33;;;0.90;;
11197;SDS011;5655;48.744;9.162;2023-01-09T11:30:52;3.72;;;1.10;;
11197;SDS011;5655;48.744;9.162;2023-01-09T11:33:21;5.45;;;1.45;;
11197;SDS011;5655;48.744;9.162;2023-01-09T11:35:54;5.22;;;1.40;;
11197;SDS011;5655;48.744;9.162;2023-01-09T11:38:20;6.32;;;1.20;;
11197;SDS011;5655;48.744;9.162;2023-01-09T11:45:50;3.03;;;0.75;;
11197;SDS011;5655;48.744;9.162;2023-01-09T11:48:29;4.70;;;1.17;;
11197;SDS011;5655;48.744;9.162;2023-01-09T11:51:21;4.32;;;1.02;;
11197;SDS011;5655;48.744;9.162;2023-01-09T11:59:12;6.32;;;1.20;;
11197;SDS011;5655;48.744;9.162;2023-01-09T12:04:27;3.75;;;0.80;;
11197;SDS011;5655;48.744;9.162;2023-01-09T12:20:49;1.27;;;0.70;;
11197;SDS011;5655;48.744;9.162;2023-01-09T12:26:23;3.63;;;0.98;;
11197;SDS011;5655;48.744;9.162;2023-01-09T12:42:58;2.30;;;0.90;;
11197;SDS011;5655;48.744;9.162;2023-01-09T12:47:55;4.28;;;1.10;;
11197;SDS011;5655;48.744;9.162;2023-01-09T12:55:54;5.28;;;0.77;;
11197;SDS011;5655;48.744;9.162;2023-01-09T12:58:28;2.88;;;1.05;;
11197;SDS011;5655;48.744;9.162;2023-01-09T13:00:57;4.53;;;1.48;;
11197;SDS011;5655;48.744;9.162;2023-01-09T13:06:27;5.65;;;1.27;;
11197;SDS011;5655;48.744;9.162;2023-01-09T13:09:40;4.30;;;1.00;;
11197;SDS011;5655;48.744;9.162;2023-01-09T13:11:52;2.70;;;0.88;;
11197;SDS011;5655;48.744;9.162;2023-01-09T13:14:36;1.73;;;0.70;;
11197;SDS011;5655;48.744;9.162;2023-01-09T13:17:04;1.10;;;0.55;;
11197;SDS011;5655;48.744;9.162;2023-01-09T13:19:36;1.42;;;0.70;;
11197;SDS011;5655;48.744;9.162;2023-01-09T13:22:06;2.72;;;0.75;;
11197;SDS011;5655;48.744;9.162;2023-01-09T13:24:37;1.80;;;0.70;;
11197;SDS011;5655;48.744;9.162;2023-01-09T13:27:14;5.05;;;0.95;;
11197;SDS011;5655;48.744;9.162;2023-01-09T13:29:44;1.67;;;0.50;;
11197;SDS011;5655;48.744;9.162;2023-01-09T13:35:01;2.50;;;1.00;;
11197;SDS011;5655;48.744;9.162;2023-01-09T13:37:27;2.97;;;0.95;;
11197;SDS011;5655;48.744;9.162;2023-01-09T13:40:03;2.42;;;0.57;;
11197;SDS011;5655;48.744;9.162;2023-01-09T13:42:31;1.20;;;0.60;;
11197;SDS011;5655;48.744;9.162;2023-01-09T13:45:08;1.98;;;0.52;;
11197;SDS011;5655;48.744;9.162;2023-01-09T13:47:36;3.08;;;1.02;;
11197;SDS011;5655;48.744;9.162;2023-01-09T13:52:35;3.40;;;0.70;;
11197;SDS011;5655;48.744;9.162;2023-01-09T13:57:41;2.05;;;0.80;;
11197;SDS011;5655;48.744;9.162;2023-01-09T14:05:14;1.50;;;0.50;;
11197;SDS011;5655;48.744;9.162;2023-01-09T14:08:01;1.08;;;0.43;;
11197;SDS011;5655;48.744;9.162;2023-01-09T14:10:30;1.15;;;0.30;;
11197;SDS011;5655;48.744;9.162;2023-01-09T14:13:03;1.50;;;0.60;;
11197;SDS011;5655;48.744;9.162;2023-01-09T14:15:37;0.70;;;0.30;;
11197;SDS011;5655;48.744;9.162;2023-01-09T14:18:05;1.13;;;0.20;;
11197;SDS011;5655;48.744;9.162;2023-01-09T14:20:40;0.38;;;0.38;;
11197;SDS011;5655;48.744;9.162;2023-01-09T14:23:21;1.25;;;0.50;;
11197;SDS011;5655;48.744;9.162;2023-01-09T14:25:48;0.28;;;0.28;;
11197;SDS011;5655;48.744;9.162;2023-01-09T14:28:18;1.85;;;0.55;;
11197;SDS011;5655;48.744;9.162;2023-01-09T14:38:26;1.67;;;0.50;;
11197;SDS011;5655;48.744;9.162;2023-01-09T14:43:40;0.77;;;0.40;;
11197;SDS011;5655;48.744;9.162;2023-01-09T14:46:13;1.40;;;0.40;;
11197;SDS011;5655;48.744;9.162;2023-01-09T14:48:54;1.70;;;0.50;;
11197;SDS011;5655;48.744;9.162;2023-01-09T14:51:24;0.45;;;0.45;;
11197;SDS011;5655;48.744;9.162;2023-01-09T14:53:51;1.88;;;0.60;;
11197;SDS011;5655;48.744;9.162;2023-01-09T14:56:27;1.73;;;0.40;;
11197;SDS011;5655;48.744;9.162;2023-01-09T14:59:03;2.72;;;0.65;;
11197;SDS011;5655;48.744;9.162;2023-01-09T15:01:34;1.27;;;0.50;;
11197;SDS011;5655;48.744;9.162;2023-01-09T15:04:01;0.70;;;0.47;;
11197;SDS011;5655;48.744;9.162;2023-01-09T15:06:50;1.67;;;0.80;;
11197;SDS011;5655;48.744;9.162;2023-01-09T15:09:25;7.68;;;0.80;;
11197;SDS011;5655;48.744;9.162;2023-01-09T15:11:55;1.10;;;0.63;;
11197;SDS011;5655;48.744;9.162;2023-01-09T15:14:30;1.73;;;0.52;;
11197;SDS011;5655;48.744;9.162;2023-01-09T15:16:57;0.93;;;0.60;;
11197;SDS011;5655;48.744;9.162;2023-01-09T15:19:23;3.38;;;0.50;;
11197;SDS011;5655;48.744;9.162;2023-01-09T15:22:00;0.75;;;0.50;;
11197;SDS011;5655;48.744;9.162;2023-01-09T15:24:27;1.27;;;0.65;;
11197;SDS011;5655;48.744;9.162;2023-01-09T15:26:59;1.38;;;0.65;;
11197;SDS011;5655;48.744;9.162;2023-01-09T15:29:26;1.17;;;0.50;;
11197;SDS011;5655;48.744;9.162;2023-01-09T15:31:57;2.55;;;0.60;;
11197;SDS011;5655;48.744;9.162;2023-01-09T15:34:27;3.05;;;0.70;;
11197;SDS011;5655;48.744;9.162;2023-01-09T15:36:53;5.55;;;0.57;;
11197;SDS011;5655;48.744;9.162;2023-01-09T15:39:20;2.67;;;0.65;;
11197;SDS011;5655;48.744;9.162;2023-01-09T15:41:49;2.55;;;1.17;;
11197;SDS011;5655;48.744;9.162;2023-01-09T15:44:33;1.85;;;0.82;;
11197;SDS011;5655;48.744;9.162;2023-01-09T15:47:03;1.15;;;0.57;;
11197;SDS011;5655;48.744;9.162;2023-01-09T15:49:31;2.05;;;0.73;;
11197;SDS011;5655;48.744;9.162;2023-01-09T15:51:57;0.75;;;0.50;;
11197;SDS011;5655;48.744;9.162;2023-01-09T15:54:29;1.27;;;0.68;;
11197;SDS011;5655;48.744;9.162;2023-01-09T15:59:49;0.82;;;0.32;;
11197;SDS011;5655;48.744;9.162;2023-01-09T16:02:14;4.60;;;2.75;;
11197;SDS011;5655;48.744;9.162;2023-01-09T16:05:01;1.08;;;0.70;;
11197;SDS011;5655;48.744;9.162;2023-01-09T16:07:30;1.70;;;0.88;;
11197;SDS011;5655;48.744;9.162;2023-01-09T16:09:57;0.40;;;0.40;;
11197;SDS011;5655;48.744;9.162;2023-01-09T16:12:24;3.47;;;0.70;;
11197;SDS011;5655;48.744;9.162;2023-01-09T16:14:51;3.08;;;0.70;;
11197;SDS011;5655;48.744;9.162;2023-01-09T16:17:22;2.22;;;0.80;;
11197;SDS011;5655;48.744;9.162;2023-01-09T16:19:56;1.25;;;0.75;;
11197;SDS011;5655;48.744;9.162;2023-01-09T16:24:48;1.20;;;0.60;;
11197;SDS011;5655;48.744;9.162;2023-01-09T16:29:53;4.45;;;2.00;;
11197;SDS011;5655;48.744;9.162;2023-01-09T16:32:33;9.65;;;4.30;;
11197;SDS011;5655;48.744;9.162;2023-01-09T16:35:01;6.10;;;3.88;;
11197;SDS011;5655;48.744;9.162;2023-01-09T16:37:29;3.65;;;1.85;;
11197;SDS011;5655;48.744;9.162;2023-01-09T16:42:42;3.57;;;1.90;;
11197;SDS011;5655;48.744;9.162;2023-01-09T16:45:24;12.98;;;6.53;;
11197;SDS011;5655;48.744;9.162;2023-01-09T16:47:53;6.03;;;3.00;;
11197;SDS011;5655;48.744;9.162;2023-01-09T16:50:19;4.97;;;2.45;;
11197;SDS011;5655;48.744;9.162;2023-01-09T16:52:45;2.38;;;0.80;;
11197;SDS011;5655;48.744;9.162;2023-01-09T16:55:11;3.27;;;0.63;;
11197;SDS011;5655;48.744;9.162;2023-01-09T16:57:36;1.88;;;0.80;;
11197;SDS011;5655;48.744;9.162;2023-01-09T17:00:02;1.17;;;0.85;;
11197;SDS011;5655;48.744;9.162;2023-01-09T17:02:28;1.40;;;0.67;;
11197;SDS011;5655;48.744;9.162;2023-01-09T17:04:53;1.15;;;1.00;;
11197;SDS011;5655;48.744;9.162;2023-01-09T17:07:20;1.70;;;1.27;;
11197;SDS011;5655;48.744;9.162;2023-01-09T17:09:49;0.98;;;0.80;;
11197;SDS011;5655;48.744;9.162;2023-01-09T17:12:15;1.13;;;0.90;;
11197;SDS011;5655;48.744;9.162;2023-01-09T17:14:43;1.75;;;1.10;;
11197;SDS011;5655;48.744;9.162;2023-01-09T17:17:10;0.93;;;0.70;;
11197;SDS011;5655;48.744;9.162;2023-01-09T17:19:38;1.33;;;0.63;;
11197;SDS011;5655;48.744;9.162;2023-01-09T17:22:04;2.03;;;0.70;;
11197;SDS011;5655;48.744;9.162;2023-01-09T17:24:29;0.90;;;0.65;;
11197;SDS011;5655;48.744;9.162;2023-01-09T17:27:13;0.65;;;0.50;;
11197;SDS011;5655;48.744;9.162;2023-01-09T17:29:58;2.50;;;0.90;;
11197;SDS011;5655;48.744;9.162;2023-01-09T17:32:24;1.73;;;0.73;;